sensor_id;sensor_type;location;lat;lon;timestamp;pressure;altitude;pressure_sealevel;temperature;humidity
25610;BME280;13479;49.044;8.716;2023-01-30T05:02:46;99548.72;;;1.77;63.22
25610;BME280;13479;49.044;8.716;2023-01-30T05:05:11;99519.88;;;1.79;62.95
25610;BME280;13479;49.044;8.716;2023-01-30T05:07:36;99525.66;;;1.87;62.60
25610;BME280;13479;49.044;8.716;2023-01-30T05:10:02;99556.03;;;1.91;62.40
25610;BME280;13479;49.044;8.716;2023-01-30T05:12:28;99586.41;;;1.95;61.95
25610;BME280;13479;49.044;8.716;2023-01-30T05:14:54;99588.22;;;1.93;61.65
25610;BME280;13479;49.044;8.716;2023-01-30T05:17:20;99560.41;;;1.91;61.87
25610;BME280;13479;49.044;8.716;2023-01-30T05:19:45;99573.56;;;1.89;61.91
25610;BME280;13479;49.044;8.716;2023-01-30T05:22:10;99562.38;;;1.85;61.25
25610;BME280;13479;49.044;8.716;2023-01-30T05:24:36;99531.72;;;1.88;61.42
25610;BME280;13479;49.044;8.716;2023-01-30T05:27:01;99536.03;;;1.89;61.37
25610;BME280;13479;49.044;8.716;2023-01-30T05:29:26;99522.69;;;1.74;61.69
25610;BME280;13479;49.044;8.716;2023-01-30T05:31:52;99503.31;;;1.78;61.93
25610;BME280;13479;49.044;8.716;2023-01-30T05:34:17;99512.47;;;1.89;61.65
25610;BME280;13479;49.044;8.716;2023-01-30T05:36:42;99501.59;;;1.77;61.41
25610;BME280;13479;49.044;8.716;2023-01-30T05:39:07;99477.22;;;1.77;62.24
25610;BME280;13479;49.044;8.716;2023-01-30T05:41:33;99475.50;;;1.76;62.13
25610;BME280;13479;49.044;8.716;2023-01-30T05:43:58;99473.47;;;1.82;61.90
25610;BME280;13479;49.044;8.716;2023-01-30T05:46:23;99458.47;;;1.86;62.17
25610;BME280;13479;49.044;8.716;2023-01-30T05:48:48;99451.13;;;1.94;62.56
25610;BME280;13479;49.044;8.716;2023-01-30T05:51:24;99460.66;;;1.97;62.02
25610;BME280;13479;49.044;8.716;2023-01-30T05:53:51;99450.19;;;1.97;62.33
25610;BME280;13479;49.044;8.716;2023-01-30T05:56:17;99449.19;;;1.99;62.28
25610;BME280;13479;49.044;8.716;2023-01-30T05:58:43;99443.22;;;1.96;62.12
25610;BME280;13479;49.044;8.716;2023-01-30T06:01:13;99432.34;;;2.05;62.23
25610;BME280;13479;49.044;8.716;2023-01-30T06:03:38;99412.50;;;1.99;63.00
25610;BME280;13479;49.044;8.716;2023-01-30T06:06:04;99409.19;;;1.96;62.70
25610;BME280;13479;49.044;8.716;2023-01-30T06:08:31;99429.06;;;2.00;62.21
25610;BME280;13479;49.044;8.716;2023-01-30T06:11:06;99417.47;;;2.06;62.25
25610;BME280;13479;49.044;8.716;2023-01-30T06:13:32;99403.03;;;1.97;62.85
25610;BME280;13479;49.044;8.716;2023-01-30T06:15:58;99387.81;;;2.05;62.78
25610;BME280;13479;49.044;8.716;2023-01-30T06:18:23;99370.09;;;2.10;63.05
25610;BME280;13479;49.044;8.716;2023-01-30T06:20:49;99391.97;;;2.09;62.69
25610;BME280;13479;49.044;8.716;2023-01-30T06:23:15;99349.09;;;2.12;63.74
25610;BME280;13479;49.044;8.716;2023-01-30T06:25:45;99348.81;;;2.18;63.06
25610;BME280;13479;49.044;8.716;2023-01-30T06:28:11;99361.13;;;2.16;62.93
25610;BME280;13479;49.044;8.716;2023-01-30T06:30:36;99371.34;;;2.22;62.49
25610;BME280;13479;49.044;8.716;2023-01-30T06:33:01;99386.53;;;2.14;62.88
25610;BME280;13479;49.044;8.716;2023-01-30T06:35:27;99368.78;;;2.02;63.42
25610;BME280;13479;49.044;8.716;2023-01-30T06:37:52;99361.41;;;2.10;63.21
25610;BME280;13479;49.044;8.716;2023-01-30T06:40:17;99341.31;;;2.10;63.50
25610;BME280;13479;49.044;8.716;2023-01-30T06:42:47;99318.38;;;2.15;63.69
25610;BME280;13479;49.044;8.716;2023-01-30T06:45:14;99327.72;;;2.02;63.66
25610;BME280;13479;49.044;8.716;2023-01-30T06:47:50;99314.13;;;2.13;63.70
25610;BME280;13479;49.044;8.716;2023-01-30T06:50:18;99273.63;;;2.01;64.68
25610;BME280;13479;49.044;8.716;2023-01-30T06:52:45;99284.13;;;2.01;64.40
25610;BME280;13479;49.044;8.716;2023-01-30T06:55:13;99306.63;;;2.05;63.69
25610;BME280;13479;49.044;8.716;2023-01-30T06:57:39;99307.94;;;2.14;64.02
25610;BME280;13479;49.044;8.716;2023-01-30T07:00:07;99350.66;;;2.16;64.12
25610;BME280;13479;49.044;8.716;2023-01-30T07:02:32;99364.59;;;2.16;63.62
25610;BME280;13479;49.044;8.716;2023-01-30T07:04:59;99366.94;;;2.23;63.28
25610;BME280;13479;49.044;8.716;2023-01-30T07:07:24;99398.50;;;2.20;63.68
25610;BME280;13479;49.044;8.716;2023-01-30T07:09:49;99411.81;;;2.34;63.53
25610;BME280;13479;49.044;8.716;2023-01-30T07:12:15;99453.13;;;2.29;63.08
25610;BME280;13479;49.044;8.716;2023-01-30T07:14:40;99473.44;;;2.24;62.86
25610;BME280;13479;49.044;8.716;2023-01-30T07:17:05;99527.56;;;2.44;62.40
25610;BME280;13479;49.044;8.716;2023-01-30T07:19:30;99517.06;;;2.25;63.07
25610;BME280;13479;49.044;8.716;2023-01-30T07:21:56;99472.31;;;2.29;63.39
25610;BME280;13479;49.044;8.716;2023-01-30T07:24:21;99438.03;;;2.34;63.38
25610;BME280;13479;49.044;8.716;2023-01-30T07:26:47;99427.56;;;2.34;63.52
25610;BME280;13479;49.044;8.716;2023-01-30T07:29:12;99435.16;;;2.40;63.59
25610;BME280;13479;49.044;8.716;2023-01-30T07:31:37;99466.97;;;2.52;63.37
25610;BME280;13479;49.044;8.716;2023-01-30T07:34:02;99454.41;;;2.39;63.67
25610;BME280;13479;49.044;8.716;2023-01-30T07:36:28;99437.91;;;2.37;63.46
25610;BME280;13479;49.044;8.716;2023-01-30T07:38:53;99419.97;;;2.28;64.17
25610;BME280;13479;49.044;8.716;2023-01-30T07:41:18;99377.97;;;2.29;64.15
25610;BME280;13479;49.044;8.716;2023-01-30T07:43:43;99349.06;;;2.31;64.80
25610;BME280;13479;49.044;8.716;2023-01-30T07:46:08;99289.53;;;2.35;65.10
25610;BME280;13479;49.044;8.716;2023-01-30T07:48:34;99231.16;;;2.31;65.46
25610;BME280;13479;49.044;8.716;2023-01-30T07:50:59;99217.88;;;2.36;65.01
25610;BME280;13479;49.044;8.716;2023-01-30T07:53:24;99200.38;;;2.36;65.59
25610;BME280;13479;49.044;8.716;2023-01-30T07:55:50;99124.22;;;2.22;67.02
25610;BME280;13479;49.044;8.716;2023-01-30T07:58:15;99085.22;;;2.33;67.67
25610;BME280;13479;49.044;8.716;2023-01-30T08:00:41;99095.56;;;2.36;68.09
25610;BME280;13479;49.044;8.716;2023-01-30T08:03:11;99107.25;;;2.46;68.46
25610;BME280;13479;49.044;8.716;2023-01-30T08:05:36;99175.94;;;2.53;67.14
25610;BME280;13479;49.044;8.716;2023-01-30T08:08:01;99218.19;;;2.47;66.97
25610;BME280;13479;49.044;8.716;2023-01-30T08:10:26;99216.25;;;2.51;66.54
25610;BME280;13479;49.044;8.716;2023-01-30T08:12:52;99224.28;;;2.47;67.00
25610;BME280;13479;49.044;8.716;2023-01-30T08:15:17;99309.53;;;2.55;65.88
25610;BME280;13479;49.044;8.716;2023-01-30T08:17:42;99292.72;;;2.41;66.53
25610;BME280;13479;49.044;8.716;2023-01-30T08:20:08;99278.06;;;2.55;66.37
25610;BME280;13479;49.044;8.716;2023-01-30T08:22:34;99276.47;;;2.52;66.72
25610;BME280;13479;49.044;8.716;2023-01-30T08:24:59;99312.19;;;2.72;66.07
25610;BME280;13479;49.044;8.716;2023-01-30T08:27:25;99342.28;;;2.83;65.28
25610;BME280;13479;49.044;8.716;2023-01-30T08:29:50;99400.56;;;2.88;65.14
25610;BME280;13479;49.044;8.716;2023-01-30T08:32:15;99402.44;;;2.86;65.16
25610;BME280;13479;49.044;8.716;2023-01-30T08:34:41;99395.06;;;2.94;64.95
25610;BME280;13479;49.044;8.716;2023-01-30T08:37:06;99379.16;;;2.97;65.52
25610;BME280;13479;49.044;8.716;2023-01-30T08:39:31;99382.94;;;3.09;65.07
25610;BME280;13479;49.044;8.716;2023-01-30T08:41:56;99398.91;;;3.22;64.94
25610;BME280;13479;49.044;8.716;2023-01-30T08:44:22;99419.47;;;3.31;64.69
25610;BME280;13479;49.044;8.716;2023-01-30T08:46:47;99427.34;;;3.49;64.25
25610;BME280;13479;49.044;8.716;2023-01-30T08:49:12;99425.78;;;3.45;64.80
25610;BME280;13479;49.044;8.716;2023-01-30T08:51:38;99407.66;;;3.40;64.80
25610;BME280;13479;49.044;8.716;2023-01-30T08:54:03;99390.59;;;3.49;64.81
25610;BME280;13479;49.044;8.716;2023-01-30T08:56:31;99370.44;;;3.49;65.22
25610;BME280;13479;49.044;8.716;2023-01-30T08:58:56;99387.78;;;3.69;64.04
25610;BME280;13479;49.044;8.716;2023-01-30T09:01:21;99448.00;;;3.90;63.73
25610;BME280;13479;49.044;8.716;2023-01-30T09:03:47;99461.44;;;4.01;62.95
25610;BME280;13479;49.044;8.716;2023-01-30T09:06:12;99458.78;;;4.19;62.96
25610;BME280;13479;49.044;8.716;2023-01-30T09:08:37;99450.69;;;4.40;62.06
25610;BME280;13479;49.044;8.716;2023-01-30T09:11:04;99457.16;;;4.50;61.85
25610;BME280;13479;49.044;8.716;2023-01-30T09:13:30;99449.63;;;4.76;61.10
25610;BME280;13479;49.044;8.716;2023-01-30T09:15:56;99462.91;;;5.05;60.67
25610;BME280;13479;49.044;8.716;2023-01-30T09:18:23;99435.47;;;5.25;60.16
25610;BME280;13479;49.044;8.716;2023-01-30T09:20:48;99434.84;;;5.36;59.49
25610;BME280;13479;49.044;8.716;2023-01-30T09:23:13;99416.63;;;5.47;58.78
25610;BME280;13479;49.044;8.716;2023-01-30T09:25:38;99417.75;;;5.43;59.17
25610;BME280;13479;49.044;8.716;2023-01-30T09:28:04;99388.59;;;5.46;58.60
25610;BME280;13479;49.044;8.716;2023-01-30T09:30:29;99376.91;;;5.36;59.35
25610;BME280;13479;49.044;8.716;2023-01-30T09:32:54;99363.47;;;5.40;59.06
25610;BME280;13479;49.044;8.716;2023-01-30T09:35:20;99360.78;;;5.42;59.42
25610;BME280;13479;49.044;8.716;2023-01-30T09:37:46;99333.97;;;5.35;59.66
25610;BME280;13479;49.044;8.716;2023-01-30T09:40:15;99307.69;;;5.19;59.74
25610;BME280;13479;49.044;8.716;2023-01-30T09:48:28;99169.66;;;4.80;61.04
25610;BME280;13479;49.044;8.716;2023-01-30T09:53:49;99096.75;;;4.68;61.86
25610;BME280;13479;49.044;8.716;2023-01-30T09:56:17;99088.31;;;4.62;62.35
25610;BME280;13479;49.044;8.716;2023-01-30T09:58:57;99063.31;;;4.84;62.10
25610;BME280;13479;49.044;8.716;2023-01-30T10:01:39;99066.25;;;4.94;62.68
25610;BME280;13479;49.044;8.716;2023-01-30T10:04:14;99098.28;;;5.01;62.45
25610;BME280;13479;49.044;8.716;2023-01-30T10:06:54;99134.44;;;4.97;61.62
25610;BME280;13479;49.044;8.716;2023-01-30T10:12:03;99165.19;;;4.97;61.58
25610;BME280;13479;49.044;8.716;2023-01-30T10:14:48;99134.81;;;4.91;61.78
25610;BME280;13479;49.044;8.716;2023-01-30T10:17:35;99148.16;;;4.88;61.76
25610;BME280;13479;49.044;8.716;2023-01-30T10:20:25;99118.56;;;4.84;62.03
25610;BME280;13479;49.044;8.716;2023-01-30T10:23:16;99095.53;;;4.73;62.25
25610;BME280;13479;49.044;8.716;2023-01-30T10:25:52;99044.38;;;4.64;62.78
25610;BME280;13479;49.044;8.716;2023-01-30T10:28:28;99044.94;;;4.55;63.03
25610;BME280;13479;49.044;8.716;2023-01-30T10:31:02;99034.78;;;4.49;63.23
25610;BME280;13479;49.044;8.716;2023-01-30T10:33:36;99013.19;;;4.44;64.14
25610;BME280;13479;49.044;8.716;2023-01-30T10:36:11;99008.94;;;4.56;63.78
25610;BME280;13479;49.044;8.716;2023-01-30T10:38:43;99024.66;;;4.43;64.01
25610;BME280;13479;49.044;8.716;2023-01-30T10:43:49;99024.16;;;4.36;64.96
25610;BME280;13479;49.044;8.716;2023-01-30T10:49:14;99034.47;;;4.25;65.17
25610;BME280;13479;49.044;8.716;2023-01-30T10:54:46;99043.41;;;4.22;66.07
25610;BME280;13479;49.044;8.716;2023-01-30T10:57:24;99046.28;;;4.17;66.48
25610;BME280;13479;49.044;8.716;2023-01-30T10:59:59;99048.66;;;4.22;66.86
25610;BME280;13479;49.044;8.716;2023-01-30T11:02:59;99079.50;;;4.18;67.09
25610;BME280;13479;49.044;8.716;2023-01-30T11:05:39;99075.09;;;4.19;67.43
25610;BME280;13479;49.044;8.716;2023-01-30T11:08:36;99091.44;;;4.24;67.77
25610;BME280;13479;49.044;8.716;2023-01-30T11:14:00;99076.81;;;4.20;68.00
25610;BME280;13479;49.044;8.716;2023-01-30T11:16:26;99101.78;;;4.27;68.08
25610;BME280;13479;49.044;8.716;2023-01-30T11:18:51;99094.66;;;4.29;67.84
25610;BME280;13479;49.044;8.716;2023-01-30T11:21:24;99087.13;;;4.23;68.08
25610;BME280;13479;49.044;8.716;2023-01-30T11:23:52;99076.97;;;4.17;68.30
25610;BME280;13479;49.044;8.716;2023-01-30T11:26:29;99106.66;;;4.19;68.57
25610;BME280;13479;49.044;8.716;2023-01-30T11:28:56;99093.28;;;4.08;69.34
25610;BME280;13479;49.044;8.716;2023-01-30T11:31:26;99094.13;;;4.08;69.10
25610;BME280;13479;49.044;8.716;2023-01-30T11:33:59;99097.34;;;4.13;69.27
25610;BME280;13479;49.044;8.716;2023-01-30T11:36:28;99114.69;;;4.16;69.34
25610;BME280;13479;49.044;8.716;2023-01-30T11:39:02;99107.41;;;4.21;70.11
25610;BME280;13479;49.044;8.716;2023-01-30T11:41:29;99102.03;;;4.23;70.99
25610;BME280;13479;49.044;8.716;2023-01-30T11:44:03;99116.16;;;4.06;72.47
25610;BME280;13479;49.044;8.716;2023-01-30T11:46:32;99144.47;;;4.16;72.52
25610;BME280;13479;49.044;8.716;2023-01-30T11:49:02;99156.25;;;4.09;73.39
25610;BME280;13479;49.044;8.716;2023-01-30T11:51:28;99183.72;;;4.04;74.07
25610;BME280;13479;49.044;8.716;2023-01-30T11:54:03;99198.72;;;4.01;74.29
25610;BME280;13479;49.044;8.716;2023-01-30T11:56:50;99238.19;;;4.16;74.78
25610;BME280;13479;49.044;8.716;2023-01-30T11:59:23;99265.00;;;4.23;74.92
25610;BME280;13479;49.044;8.716;2023-01-30T12:01:51;99289.81;;;4.33;74.51
25610;BME280;13479;49.044;8.716;2023-01-30T12:04:17;99314.75;;;4.26;74.48
25610;BME280;13479;49.044;8.716;2023-01-30T12:06:44;99328.72;;;4.26;74.33
25610;BME280;13479;49.044;8.716;2023-01-30T12:09:31;99325.44;;;4.23;74.31
25610;BME280;13479;49.044;8.716;2023-01-30T12:11:57;99312.66;;;4.16;74.16
25610;BME280;13479;49.044;8.716;2023-01-30T12:14:41;99311.47;;;4.22;73.65
25610;BME280;13479;49.044;8.716;2023-01-30T12:17:19;99339.91;;;4.30;73.91
25610;BME280;13479;49.044;8.716;2023-01-30T12:22:26;99334.66;;;4.14;73.66
25610;BME280;13479;49.044;8.716;2023-01-30T12:24:58;99326.00;;;4.12;74.18
25610;BME280;13479;49.044;8.716;2023-01-30T12:30:32;99307.72;;;4.26;74.65
25610;BME280;13479;49.044;8.716;2023-01-30T12:33:02;99315.84;;;4.22;73.78
25610;BME280;13479;49.044;8.716;2023-01-30T12:35:40;99354.84;;;4.29;72.96
25610;BME280;13479;49.044;8.716;2023-01-30T12:38:23;99364.19;;;4.19;73.42
25610;BME280;13479;49.044;8.716;2023-01-30T12:41:06;99374.44;;;4.24;73.30
25610;BME280;13479;49.044;8.716;2023-01-30T12:43:45;99378.34;;;4.16;73.86
25610;BME280;13479;49.044;8.716;2023-01-30T12:46:32;99401.50;;;4.26;72.53
25610;BME280;13479;49.044;8.716;2023-01-30T12:55:04;99471.34;;;4.30;71.67
25610;BME280;13479;49.044;8.716;2023-01-30T12:57:39;99474.16;;;4.27;72.00
25610;BME280;13479;49.044;8.716;2023-01-30T13:00:53;99430.81;;;4.18;71.87
25610;BME280;13479;49.044;8.716;2023-01-30T13:05:56;99428.19;;;4.18;72.45
25610;BME280;13479;49.044;8.716;2023-01-30T13:11:13;99444.25;;;4.12;71.75
25610;BME280;13479;49.044;8.716;2023-01-30T13:14:01;99432.38;;;4.05;71.98
25610;BME280;13479;49.044;8.716;2023-01-30T13:22:02;99450.78;;;4.05;71.04
25610;BME280;13479;49.044;8.716;2023-01-30T13:27:17;99438.41;;;4.07;71.45
25610;BME280;13479;49.044;8.716;2023-01-30T13:29:43;99451.00;;;4.00;71.05
25610;BME280;13479;49.044;8.716;2023-01-30T13:32:18;99449.72;;;3.91;71.00
25610;BME280;13479;49.044;8.716;2023-01-30T13:34:46;99434.13;;;3.88;71.66
25610;BME280;13479;49.044;8.716;2023-01-30T13:37:16;99437.69;;;3.87;71.36
25610;BME280;13479;49.044;8.716;2023-01-30T13:39:55;99426.25;;;3.88;71.50
25610;BME280;13479;49.044;8.716;2023-01-30T13:44:57;99410.69;;;3.83;72.02
25610;BME280;13479;49.044;8.716;2023-01-30T13:47:47;99412.41;;;3.84;72.27
25610;BME280;13479;49.044;8.716;2023-01-30T13:50:37;99391.56;;;3.81;71.90
25610;BME280;13479;49.044;8.716;2023-01-30T13:53:30;99344.34;;;3.80;72.87
25610;BME280;13479;49.044;8.716;2023-01-30T14:07:13;99421.34;;;4.31;72.21
25610;BME280;13479;49.044;8.716;2023-01-30T14:09:47;99447.97;;;4.41;71.82
25610;BME280;13479;49.044;8.716;2023-01-30T14:12:24;99492.41;;;4.46;71.78
25610;BME280;13479;49.044;8.716;2023-01-30T14:15:28;99472.25;;;4.62;71.50
25610;BME280;13479;49.044;8.716;2023-01-30T14:20:22;99500.44;;;4.92;70.63
25610;BME280;13479;49.044;8.716;2023-01-30T14:22:52;99499.75;;;5.05;71.27
25610;BME280;13479;49.044;8.716;2023-01-30T14:30:57;99551.41;;;5.23;69.82
25610;BME280;13479;49.044;8.716;2023-01-30T14:38:23;99508.94;;;5.14;69.75
25610;BME280;13479;49.044;8.716;2023-01-30T14:45:56;99526.19;;;5.19;69.21
25610;BME280;13479;49.044;8.716;2023-01-30T14:54:00;99490.28;;;5.02;69.15
25610;BME280;13479;49.044;8.716;2023-01-30T14:56:46;99468.88;;;4.92;70.08
25610;BME280;13479;49.044;8.716;2023-01-30T15:04:30;99420.50;;;4.79;70.13
25610;BME280;13479;49.044;8.716;2023-01-30T15:06:59;99416.63;;;4.70;71.12
25610;BME280;13479;49.044;8.716;2023-01-30T15:09:27;99402.69;;;4.68;70.92
25610;BME280;13479;49.044;8.716;2023-01-30T15:12:09;99402.03;;;4.64;70.82
25610;BME280;13479;49.044;8.716;2023-01-30T15:23:19;99373.16;;;4.47;71.89
25610;BME280;13479;49.044;8.716;2023-01-30T15:28:45;99363.56;;;4.46;71.88
25610;BME280;13479;49.044;8.716;2023-01-30T15:31:15;99337.38;;;4.44;72.17
25610;BME280;13479;49.044;8.716;2023-01-30T15:33:47;99395.31;;;4.59;71.63
25610;BME280;13479;49.044;8.716;2023-01-30T15:39:00;99439.00;;;4.61;70.93
25610;BME280;13479;49.044;8.716;2023-01-30T15:41:26;99458.25;;;4.62;71.09
25610;BME280;13479;49.044;8.716;2023-01-30T15:44:16;99483.56;;;4.64;70.89
25610;BME280;13479;49.044;8.716;2023-01-30T15:46:53;99490.66;;;4.62;71.48
25610;BME280;13479;49.044;8.716;2023-01-30T15:50:13;99488.19;;;4.59;70.57
25610;BME280;13479;49.044;8.716;2023-01-30T15:52:39;99461.22;;;4.56;71.69
25610;BME280;13479;49.044;8.716;2023-01-30T15:55:33;99461.75;;;4.62;71.49
25610;BME280;13479;49.044;8.716;2023-01-30T15:58:10;99434.94;;;4.56;71.79
25610;BME280;13479;49.044;8.716;2023-01-30T16:00:58;99413.63;;;4.60;71.72
25610;BME280;13479;49.044;8.716;2023-01-30T16:03:27;99431.69;;;4.51;72.16
25610;BME280;13479;49.044;8.716;2023-01-30T16:05:56;99427.44;;;4.48;72.36
25610;BME280;13479;49.044;8.716;2023-01-30T16:08:24;99431.09;;;4.45;72.04
25610;BME280;13479;49.044;8.716;2023-01-30T16:10:50;99440.84;;;4.43;72.00
25610;BME280;13479;49.044;8.716;2023-01-30T16:13:16;99450.19;;;4.49;71.60
25610;BME280;13479;49.044;8.716;2023-01-30T16:16:02;99469.19;;;4.38;71.68
25610;BME280;13479;49.044;8.716;2023-01-30T16:21:09;99429.81;;;4.37;72.77
25610;BME280;13479;49.044;8.716;2023-01-30T16:23:42;99421.00;;;4.38;72.35
25610;BME280;13479;49.044;8.716;2023-01-30T16:26:16;99442.38;;;4.31;72.90
25610;BME280;13479;49.044;8.716;2023-01-30T16:28:43;99436.09;;;4.34;72.88
25610;BME280;13479;49.044;8.716;2023-01-30T16:31:09;99440.31;;;4.37;73.16
25610;BME280;13479;49.044;8.716;2023-01-30T16:33:35;99457.97;;;4.35;72.97
25610;BME280;13479;49.044;8.716;2023-01-30T16:36:27;99460.00;;;4.29;73.02
25610;BME280;13479;49.044;8.716;2023-01-30T16:38:52;99468.91;;;4.27;72.76
25610;BME280;13479;49.044;8.716;2023-01-30T16:41:34;99467.59;;;4.18;73.61
25610;BME280;13479;49.044;8.716;2023-01-30T16:44:19;99488.13;;;4.27;73.12
25610;BME280;13479;49.044;8.716;2023-01-30T16:46:46;99481.81;;;4.14;74.00
25610;BME280;13479;49.044;8.716;2023-01-30T16:52:22;99510.88;;;4.28;73.26
25610;BME280;13479;49.044;8.716;2023-01-30T16:54:59;99547.53;;;4.31;72.80
25610;BME280;13479;49.044;8.716;2023-01-30T16:59:59;99513.22;;;4.17;73.61
25610;BME280;13479;49.044;8.716;2023-01-30T17:02:36;99525.38;;;4.02;73.85
25610;BME280;13479;49.044;8.716;2023-01-30T17:05:17;99514.47;;;3.92;74.36
25610;BME280;13479;49.044;8.716;2023-01-30T17:07:43;99514.28;;;3.78;74.52
25610;BME280;13479;49.044;8.716;2023-01-30T17:12:54;99527.44;;;3.60;75.85
25610;BME280;13479;49.044;8.716;2023-01-30T17:17:45;99565.97;;;3.60;76.12
25610;BME280;13479;49.044;8.716;2023-01-30T17:20:12;99578.38;;;3.56;76.54
25610;BME280;13479;49.044;8.716;2023-01-30T17:22:42;99613.53;;;3.53;76.84
25610;BME280;13479;49.044;8.716;2023-01-30T17:25:37;99625.03;;;3.51;76.59
25610;BME280;13479;49.044;8.716;2023-01-30T17:28:05;99643.88;;;3.59;76.48
25610;BME280;13479;49.044;8.716;2023-01-30T17:30:30;99663.47;;;3.52;77.40
25610;BME280;13479;49.044;8.716;2023-01-30T17:32:56;99651.41;;;3.67;76.93
25610;BME280;13479;49.044;8.716;2023-01-30T17:35:21;99707.03;;;3.75;76.55
25610;BME280;13479;49.044;8.716;2023-01-30T17:37:46;99733.78;;;3.83;75.70
25610;BME280;13479;49.044;8.716;2023-01-30T17:40:16;99737.38;;;3.82;76.52
25610;BME280;13479;49.044;8.716;2023-01-30T17:42:42;99722.34;;;3.84;76.61
25610;BME280;13479;49.044;8.716;2023-01-30T17:45:07;99726.47;;;3.90;76.69
25610;BME280;13479;49.044;8.716;2023-01-30T17:47:34;99736.63;;;3.98;76.26
25610;BME280;13479;49.044;8.716;2023-01-30T17:49:59;99730.56;;;3.96;76.49
25610;BME280;13479;49.044;8.716;2023-01-30T17:52:25;99745.94;;;4.05;76.13
25610;BME280;13479;49.044;8.716;2023-01-30T17:54:50;99733.06;;;3.99;76.74
25610;BME280;13479;49.044;8.716;2023-01-30T17:57:15;99734.28;;;4.11;75.72
25610;BME280;13479;49.044;8.716;2023-01-30T17:59:41;99763.09;;;4.12;75.81
25610;BME280;13479;49.044;8.716;2023-01-30T18:02:08;99781.13;;;4.20;76.21
25610;BME280;13479;49.044;8.716;2023-01-30T18:04:34;99786.41;;;4.20;75.62
25610;BME280;13479;49.044;8.716;2023-01-30T18:07:01;99793.06;;;4.27;75.61
25610;BME280;13479;49.044;8.716;2023-01-30T18:09:28;99798.97;;;4.32;75.56
25610;BME280;13479;49.044;8.716;2023-01-30T18:11:54;99817.19;;;4.36;74.78
25610;BME280;13479;49.044;8.716;2023-01-30T18:14:19;99812.25;;;4.29;74.98
25610;BME280;13479;49.044;8.716;2023-01-30T18:16:45;99830.34;;;4.36;74.51
25610;BME280;13479;49.044;8.716;2023-01-30T18:19:13;99821.66;;;4.33;74.62
25610;BME280;13479;49.044;8.716;2023-01-30T18:21:39;99814.09;;;4.27;75.01
25610;BME280;13479;49.044;8.716;2023-01-30T18:24:07;99812.38;;;4.26;74.35
25610;BME280;13479;49.044;8.716;2023-01-30T18:26:32;99799.16;;;4.28;75.23
25610;BME280;13479;49.044;8.716;2023-01-30T18:28:58;99787.94;;;4.24;75.42
25610;BME280;13479;49.044;8.716;2023-01-30T18:31:23;99770.47;;;4.23;75.49
25610;BME280;13479;49.044;8.716;2023-01-30T18:33:51;99764.38;;;4.23;75.62
25610;BME280;13479;49.044;8.716;2023-01-30T18:36:18;99770.63;;;4.20;75.52
25610;BME280;13479;49.044;8.716;2023-01-30T18:38:45;99753.16;;;4.19;75.47
25610;BME280;13479;49.044;8.716;2023-01-30T18:41:15;99764.91;;;4.29;75.13
25610;BME280;13479;49.044;8.716;2023-01-30T18:43:41;99790.19;;;4.32;75.13
25610;BME280;13479;49.044;8.716;2023-01-30T18:46:12;99798.63;;;4.21;75.69
25610;BME280;13479;49.044;8.716;2023-01-30T18:48:41;99809.97;;;4.22;75.43
25610;BME280;13479;49.044;8.716;2023-01-30T18:53:36;99792.03;;;4.30;75.42
25610;BME280;13479;49.044;8.716;2023-01-30T18:56:02;99794.63;;;4.31;75.46
25610;BME280;13479;49.044;8.716;2023-01-30T18:58:30;99818.84;;;4.38;74.91
25610;BME280;13479;49.044;8.716;2023-01-30T19:00:56;99829.56;;;4.33;75.73
25610;BME280;13479;49.044;8.716;2023-01-30T19:03:22;99832.97;;;4.36;75.48
25610;BME280;13479;49.044;8.716;2023-01-30T19:05:47;99830.69;;;4.47;74.76
25610;BME280;13479;49.044;8.716;2023-01-30T19:08:12;99835.31;;;4.42;74.84
25610;BME280;13479;49.044;8.716;2023-01-30T19:10:37;99821.31;;;4.41;75.18
25610;BME280;13479;49.044;8.716;2023-01-30T19:13:03;99816.59;;;4.48;74.92
25610;BME280;13479;49.044;8.716;2023-01-30T19:15:47;99836.09;;;4.44;75.29
25610;BME280;13479;49.044;8.716;2023-01-30T19:18:12;99828.84;;;4.49;75.32
25610;BME280;13479;49.044;8.716;2023-01-30T19:20:37;99820.47;;;4.41;75.33
25610;BME280;13479;49.044;8.716;2023-01-30T19:23:03;99806.88;;;4.50;75.63
25610;BME280;13479;49.044;8.716;2023-01-30T19:25:28;99857.41;;;4.57;74.61
25610;BME280;13479;49.044;8.716;2023-01-30T19:27:53;99853.38;;;4.50;75.11
25610;BME280;13479;49.044;8.716;2023-01-30T19:30:18;99839.50;;;4.46;75.12
25610;BME280;13479;49.044;8.716;2023-01-30T19:32:44;99849.88;;;4.49;75.44
25610;BME280;13479;49.044;8.716;2023-01-30T19:35:10;99846.97;;;4.55;75.12
25610;BME280;13479;49.044;8.716;2023-01-30T19:37:35;99875.31;;;4.48;75.57
25610;BME280;13479;49.044;8.716;2023-01-30T19:40:02;99857.63;;;4.52;75.73
25610;BME280;13479;49.044;8.716;2023-01-30T19:42:32;99869.69;;;4.56;75.71
25610;BME280;13479;49.044;8.716;2023-01-30T19:44:58;99861.19;;;4.51;75.58
25610;BME280;13479;49.044;8.716;2023-01-30T19:47:24;99879.00;;;4.63;74.52
25610;BME280;13479;49.044;8.716;2023-01-30T19:49:49;99918.59;;;4.60;74.56
25610;BME280;13479;49.044;8.716;2023-01-30T19:52:14;99922.94;;;4.61;74.52
25610;BME280;13479;49.044;8.716;2023-01-30T19:54:39;99900.63;;;4.51;74.88
25610;BME280;13479;49.044;8.716;2023-01-30T19:57:05;99877.03;;;4.50;75.00
25610;BME280;13479;49.044;8.716;2023-01-30T19:59:30;99857.16;;;4.44;75.00
25610;BME280;13479;49.044;8.716;2023-01-30T20:01:55;99848.31;;;4.45;75.19
25610;BME280;13479;49.044;8.716;2023-01-30T20:04:20;99849.09;;;4.47;75.32
25610;BME280;13479;49.044;8.716;2023-01-30T20:06:46;99848.16;;;4.48;75.39
25610;BME280;13479;49.044;8.716;2023-01-30T20:09:13;99881.16;;;4.55;74.51
25610;BME280;13479;49.044;8.716;2023-01-30T20:11:40;99889.22;;;4.51;74.77
25610;BME280;13479;49.044;8.716;2023-01-30T20:14:06;99891.31;;;4.44;74.63
25610;BME280;13479;49.044;8.716;2023-01-30T20:16:33;99904.25;;;4.48;75.28
25610;BME280;13479;49.044;8.716;2023-01-30T20:19:02;99884.84;;;4.51;74.42
25610;BME280;13479;49.044;8.716;2023-01-30T20:21:29;99923.16;;;4.57;74.08
25610;BME280;13479;49.044;8.716;2023-01-30T20:23:54;99915.75;;;4.46;74.69
25610;BME280;13479;49.044;8.716;2023-01-30T20:26:22;99922.22;;;4.58;74.33